createdAt,value
2019-05-23T00:01:20.489Z,101765.55
2019-05-23T00:04:01.533Z,101761.12
2019-05-23T00:06:42.247Z,101766.48
2019-05-23T00:09:15.737Z,101758.95
2019-05-23T00:11:57.106Z,101762.08
2019-05-23T00:14:38.027Z,101767.00
2019-05-23T00:17:14.861Z,101768.34
2019-05-23T00:19:50.357Z,101771.48
2019-05-23T00:22:25.103Z,101763.92
2019-05-23T00:24:59.045Z,101772.86
2019-05-23T00:27:32.708Z,101771.08
2019-05-23T00:30:11.887Z,101766.22
2019-05-23T00:32:46.995Z,101765.77
2019-05-23T00:35:20.973Z,101757.33
2019-05-23T00:37:55.754Z,101759.53
2019-05-23T00:40:30.615Z,101766.22
2019-05-23T00:43:04.155Z,101757.78
2019-05-23T00:45:37.971Z,101760.47
2019-05-23T00:48:12.354Z,101762.21
2019-05-23T00:50:46.346Z,101756.84
2019-05-23T00:53:19.921Z,101758.17
2019-05-23T00:55:53.979Z,101754.16
2019-05-23T00:58:28.177Z,101758.63
2019-05-23T01:01:03.117Z,101759.08
2019-05-23T01:03:37.244Z,101759.52
2019-05-23T01:06:11.330Z,101755.51
2019-05-23T01:08:46.445Z,101759.13
2019-05-23T01:11:21.407Z,101754.21
2019-05-23T01:13:56.277Z,101755.11
2019-05-23T01:16:31.993Z,101754.21
2019-05-23T01:19:07.488Z,101752.88
2019-05-23T01:22:00.582Z,101749.75
2019-05-23T01:24:35.945Z,101754.23
2019-05-23T01:27:10.393Z,101752.45
2019-05-23T01:29:49.599Z,101747.14
2019-05-23T01:32:22.874Z,101746.27
2019-05-23T01:34:56.868Z,101748.11
2019-05-23T01:37:31.422Z,101745.91
2019-05-23T01:40:07.634Z,101743.70
2019-05-23T01:42:42.890Z,101743.30
2019-05-23T01:45:17.685Z,101746.92
2019-05-23T01:47:52.122Z,101743.35
2019-05-23T01:50:26.606Z,101753.62
2019-05-23T01:53:00.467Z,101747.86
2019-05-23T01:55:34.332Z,101753.72
2019-05-23T01:58:08.902Z,101749.71
2019-05-23T02:00:43.128Z,101751.98
2019-05-23T02:03:16.760Z,101752.42
2019-05-23T02:05:50.674Z,101748.45
2019-05-23T02:08:24.331Z,101751.54
2019-05-23T02:10:58.186Z,101750.23
2019-05-23T02:13:32.593Z,101743.55
2019-05-23T02:16:06.195Z,101747.17
2019-05-23T02:18:39.778Z,101743.20
2019-05-23T02:21:15.927Z,101744.12
2019-05-23T02:23:49.498Z,101743.23
2019-05-23T02:26:24.383Z,101745.47
2019-05-23T02:28:59.014Z,101741.05
2019-05-23T02:31:32.855Z,101737.48
2019-05-23T02:34:06.511Z,101736.19
2019-05-23T02:36:40.058Z,101736.67
2019-05-23T02:39:31.469Z,101734.03
2019-05-23T02:42:22.154Z,101734.97
2019-05-23T02:44:56.876Z,101735.41
2019-05-23T02:47:34.932Z,101732.30
2019-05-23T02:50:13.278Z,101730.09
2019-05-23T02:52:52.368Z,101729.21
2019-05-23T02:55:35.286Z,101733.70
2019-05-23T02:58:20.776Z,101728.39
2019-05-23T03:01:04.662Z,101729.73
2019-05-23T03:03:39.600Z,101725.75
2019-05-23T03:06:15.038Z,101723.52
2019-05-23T03:08:49.194Z,101724.45
2019-05-23T03:11:28.968Z,101719.09
2019-05-23T03:14:04.566Z,101720.02
2019-05-23T03:16:41.112Z,101714.67
2019-05-23T03:19:23.995Z,101719.16
2019-05-23T03:22:01.160Z,101719.16
2019-05-23T03:24:35.374Z,101716.48
2019-05-23T03:27:10.662Z,101718.23
2019-05-23T03:29:44.948Z,101721.36
2019-05-23T03:32:39.406Z,101718.23
2019-05-23T03:35:31.438Z,101707.09
2019-05-23T03:38:06.916Z,101714.19
2019-05-23T03:40:46.411Z,101705.69
2019-05-23T03:43:20.725Z,101710.11
2019-05-23T03:46:04.192Z,101704.27
2019-05-23T03:48:38.613Z,101704.23
2019-05-23T03:51:12.240Z,101702.90
2019-05-23T03:53:47.640Z,101706.02
2019-05-23T03:56:23.029Z,101714.41
2019-05-23T03:58:58.567Z,101706.83
2019-05-23T04:01:47.218Z,101709.47
2019-05-23T04:04:10.206Z,101703.17
2019-05-23T04:06:45.649Z,101700.89
2019-05-23T04:09:19.505Z,101707.50
2019-05-23T04:11:53.593Z,101707.00
2019-05-23T04:14:27.830Z,101709.19
2019-05-23T04:17:02.379Z,101707.34
2019-05-23T04:19:36.149Z,101707.24
2019-05-23T04:22:10.066Z,101708.03
2019-05-23T04:24:43.906Z,101704.41
2019-05-23T04:27:17.735Z,101706.17
2019-05-23T04:29:51.575Z,101708.75
2019-05-23T04:32:25.614Z,101704.71
2019-05-23T04:34:59.358Z,101702.83
2019-05-23T04:37:32.871Z,101704.94
2019-05-23T04:40:10.244Z,101703.86
2019-05-23T04:42:43.745Z,101705.50
2019-05-23T04:45:17.817Z,101709.75
2019-05-23T04:47:51.521Z,101708.69
2019-05-23T04:50:25.844Z,101708.02
2019-05-23T04:53:00.421Z,101710.98
2019-05-23T04:55:34.184Z,101721.92
2019-05-23T04:58:07.928Z,101719.89
2019-05-23T05:00:42.080Z,101727.20
2019-05-23T05:03:18.255Z,101725.23
2019-05-23T05:05:52.394Z,101725.48
2019-05-23T05:08:25.892Z,101732.02
2019-05-23T05:11:00.563Z,101733.64
2019-05-23T05:13:34.505Z,101741.48
2019-05-23T05:16:08.711Z,101738.13
2019-05-23T05:18:42.263Z,101745.41
2019-05-23T05:21:36.552Z,101747.70
2019-05-23T05:24:10.266Z,101746.52
2019-05-23T05:26:43.758Z,101745.27
2019-05-23T05:29:17.476Z,101751.76
2019-05-23T05:31:51.507Z,101745.78
2019-05-23T05:34:25.166Z,101755.33
2019-05-23T05:36:58.990Z,101758.32
2019-05-23T05:39:33.144Z,101759.55
2019-05-23T05:42:08.468Z,101760.27
2019-05-23T05:44:42.788Z,101769.07
2019-05-23T05:47:16.528Z,101764.88
2019-05-23T05:49:50.864Z,101769.64
2019-05-23T05:52:24.759Z,101772.59
2019-05-23T05:55:00.906Z,101774.22
2019-05-23T05:57:33.536Z,101774.98
2019-05-23T06:00:12.938Z,101774.89
2019-05-23T06:03:02.677Z,101775.30
2019-05-23T06:05:33.022Z,101770.33
2019-05-23T06:08:08.170Z,101774.86
2019-05-23T06:10:43.384Z,101785.98
2019-05-23T06:13:17.153Z,101791.20
2019-05-23T06:15:52.440Z,101786.02
2019-05-23T06:18:26.101Z,101786.28
2019-05-23T06:21:00.247Z,101787.90
2019-05-23T06:23:34.764Z,101786.42
2019-05-23T06:26:08.474Z,101792.87
2019-05-23T06:28:43.977Z,101787.61
2019-05-23T06:31:18.064Z,101783.58
2019-05-23T06:33:52.366Z,101783.58
2019-05-23T06:36:26.114Z,101786.72
2019-05-23T06:38:59.818Z,101778.09
2019-05-23T06:41:33.318Z,101769.70
2019-05-23T06:44:09.235Z,101785.66
2019-05-23T06:46:43.148Z,101787.95
2019-05-23T06:49:16.777Z,101790.33
2019-05-23T06:51:50.385Z,101782.34
2019-05-23T06:54:23.892Z,101783.81
2019-05-23T06:56:57.435Z,101794.40
2019-05-23T06:59:31.002Z,101793.13
2019-05-23T07:02:04.606Z,101796.25
2019-05-23T07:04:38.494Z,101789.23
2019-05-23T07:07:12.290Z,101789.89
2019-05-23T07:09:46.067Z,101793.54
2019-05-23T07:12:19.906Z,101788.22
2019-05-23T07:14:53.406Z,101785.59
2019-05-23T07:17:27.355Z,101788.25
2019-05-23T07:20:00.932Z,101786.84
2019-05-23T07:22:34.966Z,101786.23
2019-05-23T07:25:09.667Z,101786.71
2019-05-23T07:27:43.886Z,101794.90
2019-05-23T07:30:20.445Z,101793.31
2019-05-23T07:32:54.916Z,101790.55
2019-05-23T07:35:28.640Z,101791.97
2019-05-23T07:38:02.569Z,101788.65
2019-05-23T07:40:36.451Z,101788.70
2019-05-23T07:43:10.567Z,101799.07
2019-05-23T07:46:02.932Z,101791.34
2019-05-23T07:48:36.713Z,101796.37
2019-05-23T07:51:10.348Z,101794.64
2019-05-23T07:53:49.487Z,101800.19
2019-05-23T07:56:24.835Z,101803.12
2019-05-23T07:58:58.939Z,101796.28
2019-05-23T08:01:34.786Z,101789.22
2019-05-23T08:04:21.524Z,101795.08
2019-05-23T08:06:48.834Z,101788.82
2019-05-23T08:09:21.229Z,101792.84
2019-05-23T08:11:54.887Z,101792.02
2019-05-23T08:14:28.427Z,101793.12
2019-05-23T08:17:02.018Z,101790.20
2019-05-23T08:19:49.103Z,101798.91
2019-05-23T08:22:11.096Z,101793.92
2019-05-23T08:24:44.717Z,101794.86
2019-05-23T08:27:18.778Z,101796.67
2019-05-23T08:29:52.484Z,101792.73
2019-05-23T08:32:26.047Z,101793.73
2019-05-23T08:35:00.649Z,101793.64
2019-05-23T08:37:35.458Z,101794.53
2019-05-23T08:40:10.337Z,101789.34
2019-05-23T08:42:45.549Z,101792.89
2019-05-23T08:45:20.229Z,101791.66
2019-05-23T08:47:53.815Z,101790.96
2019-05-23T08:50:28.794Z,101791.34
2019-05-23T08:53:02.457Z,101788.23
2019-05-23T08:55:37.177Z,101782.80
2019-05-23T08:58:12.210Z,101781.71
2019-05-23T09:00:45.747Z,101782.68
2019-05-23T09:03:20.258Z,101781.41
2019-05-23T09:05:54.637Z,101782.71
2019-05-23T09:08:29.947Z,101784.97
2019-05-23T09:11:03.608Z,101775.14
2019-05-23T09:13:37.997Z,101775.48
2019-05-23T09:16:12.105Z,101779.80
2019-05-23T09:18:45.698Z,101772.76
2019-05-23T09:21:19.308Z,101776.16
2019-05-23T09:23:52.941Z,101773.50
2019-05-23T09:26:27.264Z,101775.09
2019-05-23T09:29:01.754Z,101777.84
2019-05-23T09:31:35.630Z,101771.44
2019-05-23T09:34:09.184Z,101769.17
2019-05-23T09:36:43.029Z,101768.23
2019-05-23T09:39:18.301Z,101769.94
2019-05-23T09:41:51.801Z,101767.55
2019-05-23T09:44:25.437Z,101774.02
2019-05-23T09:46:58.999Z,101764.72
2019-05-23T09:49:32.673Z,101766.71
2019-05-23T09:52:08.023Z,101759.98
2019-05-23T09:54:41.815Z,101761.90
2019-05-23T09:57:15.724Z,101763.23
2019-05-23T09:59:49.588Z,101762.90
2019-05-23T10:02:23.427Z,101750.95
2019-05-23T10:04:57.825Z,101751.44
2019-05-23T10:07:31.738Z,101753.70
2019-05-23T10:10:07.351Z,101760.16
2019-05-23T10:12:40.890Z,101750.67
2019-05-23T10:15:32.997Z,101747.13
2019-05-23T10:18:08.437Z,101745.61
2019-05-23T10:20:41.953Z,101747.17
2019-05-23T10:23:15.920Z,101752.95
2019-05-23T10:25:49.435Z,101743.48
2019-05-23T10:28:22.988Z,101742.86
2019-05-23T10:30:56.718Z,101732.75
2019-05-23T10:33:30.544Z,101733.16
2019-05-23T10:36:04.646Z,101733.09
2019-05-23T10:38:38.268Z,101736.16
2019-05-23T10:41:12.559Z,101731.63
2019-05-23T10:43:46.372Z,101725.95
2019-05-23T10:46:20.029Z,101733.67
2019-05-23T10:48:53.770Z,101737.45
2019-05-23T10:51:27.347Z,101730.42
2019-05-23T10:54:01.158Z,101725.08
2019-05-23T10:56:35.160Z,101719.98
2019-05-23T10:59:08.643Z,101719.13
2019-05-23T11:01:42.525Z,101712.25
2019-05-23T11:04:16.126Z,101719.25
2019-05-23T11:06:50.292Z,101716.44
2019-05-23T11:09:37.255Z,101714.98
2019-05-23T11:12:00.178Z,101702.98
2019-05-23T11:14:34.011Z,101709.92
2019-05-23T11:17:07.816Z,101709.93
2019-05-23T11:19:41.951Z,101696.52
2019-05-23T11:22:15.667Z,101701.72
2019-05-23T11:24:49.330Z,101696.34
2019-05-23T11:27:24.231Z,101694.73
2019-05-23T11:29:57.833Z,101689.09
2019-05-23T11:32:31.406Z,101688.08
2019-05-23T11:35:05.849Z,101684.70
2019-05-23T11:37:41.859Z,101684.67
2019-05-23T11:40:16.296Z,101690.39
2019-05-23T11:42:52.626Z,101688.73
2019-05-23T11:45:27.239Z,101687.27
2019-05-23T11:48:00.806Z,101675.75
2019-05-23T11:50:34.305Z,101680.73
2019-05-23T11:53:08.328Z,101686.23
2019-05-23T11:55:41.962Z,101684.02
2019-05-23T11:58:16.019Z,101685.02
2019-05-23T12:01:20.539Z,101685.02
2019-05-23T12:03:51.389Z,101679.81
2019-05-23T12:06:26.949Z,101677.23
2019-05-23T12:09:01.249Z,101671.66
2019-05-23T12:11:41.395Z,101671.00
2019-05-23T12:14:11.660Z,101665.52
2019-05-23T12:16:45.476Z,101662.78
2019-05-23T12:19:19.352Z,101659.91
2019-05-23T12:21:52.968Z,101665.62
2019-05-23T12:24:26.919Z,101661.30
2019-05-23T12:27:00.484Z,101658.66
2019-05-23T12:29:35.411Z,101659.65
2019-05-23T12:32:10.583Z,101655.75
2019-05-23T12:34:44.300Z,101650.11
2019-05-23T12:37:20.061Z,101641.73
2019-05-23T12:39:55.288Z,101645.87
2019-05-23T12:42:28.747Z,101652.45
2019-05-23T12:45:02.377Z,101647.48
2019-05-23T12:47:40.516Z,101638.97
2019-05-23T12:50:22.105Z,101637.21
2019-05-23T12:52:55.598Z,101636.57
2019-05-23T12:55:29.145Z,101640.16
2019-05-23T12:58:02.817Z,101636.03
2019-05-23T13:00:40.554Z,101627.72
2019-05-23T13:03:15.647Z,101628.58
2019-05-23T13:05:49.463Z,101626.66
2019-05-23T13:08:23.446Z,101624.66
2019-05-23T13:10:57.023Z,101617.02
2019-05-23T13:13:31.059Z,101616.42
2019-05-23T13:16:04.877Z,101616.23
2019-05-23T13:18:38.421Z,101609.72
2019-05-23T13:21:12.357Z,101612.59
2019-05-23T13:23:45.907Z,101611.23
2019-05-23T13:26:19.702Z,101609.06
2019-05-23T13:28:53.189Z,101607.06
2019-05-23T13:31:26.838Z,101616.84
2019-05-23T13:34:00.390Z,101615.05
2019-05-23T13:36:34.206Z,101617.20
2019-05-23T13:39:08.841Z,101606.67
2019-05-23T13:41:42.335Z,101609.77
2019-05-23T13:44:32.814Z,101604.48
2019-05-23T13:46:51.663Z,101601.75
2019-05-23T13:49:25.718Z,101604.38
2019-05-23T13:51:59.315Z,101598.21
2019-05-23T13:54:36.175Z,101594.03
2019-05-23T13:57:09.595Z,101592.06
2019-05-23T13:59:43.182Z,101578.55
2019-05-23T14:02:16.952Z,101584.00
2019-05-23T14:04:51.029Z,101577.43
2019-05-23T14:07:26.855Z,101575.57
2019-05-23T14:10:00.579Z,101568.70
2019-05-23T14:12:34.144Z,101572.08
2019-05-23T14:15:10.354Z,101573.58
2019-05-23T14:17:44.891Z,101564.97
2019-05-23T14:20:21.212Z,101568.06
2019-05-23T14:23:02.363Z,101566.22
2019-05-23T14:25:35.748Z,101564.22
2019-05-23T14:28:09.824Z,101566.47
2019-05-23T14:30:45.119Z,101568.06
2019-05-23T14:33:20.442Z,101562.47
2019-05-23T14:35:55.902Z,101563.20
2019-05-23T14:38:31.586Z,101560.82
2019-05-23T14:41:05.370Z,101555.69
2019-05-23T14:43:39.790Z,101558.21
2019-05-23T14:46:14.953Z,101557.58
2019-05-23T14:49:08.255Z,101552.33
2019-05-23T14:51:46.189Z,101544.46
2019-05-23T14:54:21.554Z,101544.09
2019-05-23T14:56:55.951Z,101543.59
2019-05-23T14:59:29.907Z,101537.09
2019-05-23T15:02:05.168Z,101539.45
2019-05-23T15:04:38.849Z,101549.18
2019-05-23T15:07:12.541Z,101546.59
2019-05-23T15:09:46.047Z,101537.19
2019-05-23T15:12:19.744Z,101536.73
2019-05-23T15:14:53.330Z,101540.08
2019-05-23T15:17:26.914Z,101539.29
2019-05-23T15:20:00.465Z,101532.56
2019-05-23T15:22:34.112Z,101534.98
2019-05-23T15:25:07.935Z,101525.95
2019-05-23T15:27:41.647Z,101527.20
2019-05-23T15:30:15.559Z,101524.13
2019-05-23T15:32:49.142Z,101522.51
2019-05-23T15:35:22.733Z,101518.73
2019-05-23T15:37:56.305Z,101517.33
2019-05-23T15:40:30.110Z,101511.98
2019-05-23T15:43:03.969Z,101517.29
2019-05-23T15:45:38.087Z,101520.06
2019-05-23T15:48:12.038Z,101521.80
2019-05-23T15:50:47.388Z,101507.83
2019-05-23T15:53:39.228Z,101513.45
2019-05-23T15:56:27.955Z,101507.84
2019-05-23T15:59:13.202Z,101509.59
2019-05-23T16:02:06.865Z,101500.80
2019-05-23T16:04:41.090Z,101506.50
2019-05-23T16:07:14.999Z,101504.40
2019-05-23T16:09:48.880Z,101498.55
2019-05-23T16:12:22.959Z,101500.04
2019-05-23T16:14:56.563Z,101499.53
2019-05-23T16:17:30.035Z,101497.02
2019-05-23T16:20:04.281Z,101495.84
2019-05-23T16:22:39.046Z,101492.81
2019-05-23T16:25:17.182Z,101486.73
2019-05-23T16:27:51.413Z,101490.23
2019-05-23T16:30:25.510Z,101483.14
2019-05-23T16:32:59.038Z,101476.45
2019-05-23T16:35:32.910Z,101471.23
2019-05-23T16:38:06.470Z,101470.35
2019-05-23T16:40:40.094Z,101468.36
2019-05-23T16:43:13.851Z,101472.09
2019-05-23T16:45:47.412Z,101463.95
2019-05-23T16:48:21.015Z,101474.48
2019-05-23T16:50:54.516Z,101461.84
2019-05-23T16:53:28.833Z,101472.55
2019-05-23T16:56:07.600Z,101472.42
2019-05-23T16:58:48.804Z,101473.15
2019-05-23T17:01:54.757Z,101473.48
2019-05-23T17:04:16.780Z,101471.68
2019-05-23T17:07:08.505Z,101469.14
2019-05-23T17:10:08.465Z,101461.61
2019-05-23T17:12:41.632Z,101463.50
2019-05-23T17:15:19.018Z,101467.28
2019-05-23T17:18:09.240Z,101463.87
2019-05-23T17:20:50.991Z,101460.89
2019-05-23T17:23:26.233Z,101461.03
2019-05-23T17:26:19.436Z,101457.78
2019-05-23T17:28:56.962Z,101454.81
2019-05-23T17:31:35.034Z,101448.31
2019-05-23T17:34:08.619Z,101447.09
2019-05-23T17:36:42.234Z,101442.45
2019-05-23T17:39:16.930Z,101438.85
2019-05-23T17:41:50.540Z,101436.47
2019-05-23T17:44:24.042Z,101442.34
2019-05-23T17:46:57.514Z,101434.47
2019-05-23T17:49:31.114Z,101441.84
2019-05-23T17:52:05.031Z,101432.22
2019-05-23T17:54:38.715Z,101434.73
2019-05-23T17:57:12.598Z,101438.70
2019-05-23T17:59:46.147Z,101430.80
2019-05-23T18:02:20.650Z,101431.94
2019-05-23T18:04:54.975Z,101429.59
2019-05-23T18:07:28.575Z,101430.16
2019-05-23T18:10:02.949Z,101430.59
2019-05-23T18:12:36.633Z,101426.41
2019-05-23T18:15:12.711Z,101426.94
2019-05-23T18:17:47.125Z,101430.06
2019-05-23T18:20:21.163Z,101416.80
2019-05-23T18:22:54.699Z,101417.07
2019-05-23T18:25:30.069Z,101415.75
2019-05-23T18:28:04.743Z,101411.23
2019-05-23T18:30:49.847Z,101412.00
2019-05-23T18:33:24.343Z,101417.52
2019-05-23T18:35:58.980Z,101419.25
2019-05-23T18:38:33.296Z,101413.66
2019-05-23T18:41:09.130Z,101414.78
2019-05-23T18:43:43.252Z,101415.34
2019-05-23T18:46:18.537Z,101405.53
2019-05-23T18:49:01.835Z,101414.45
2019-05-23T18:51:35.539Z,101413.04
2019-05-23T18:54:15.174Z,101411.52
2019-05-23T18:56:48.679Z,101417.33
2019-05-23T18:59:22.401Z,101417.00
2019-05-23T19:01:56.156Z,101410.00
2019-05-23T19:04:31.444Z,101415.30
2019-05-23T19:07:05.760Z,101416.95
2019-05-23T19:09:39.866Z,101408.48
2019-05-23T19:12:13.721Z,101410.55
2019-05-23T19:14:47.325Z,101406.54
2019-05-23T19:17:21.427Z,101403.13
2019-05-23T19:19:55.031Z,101402.45
2019-05-23T19:22:29.418Z,101403.73
2019-05-23T19:25:03.074Z,101404.55
2019-05-23T19:27:37.004Z,101406.27
2019-05-23T19:30:11.891Z,101407.05
2019-05-23T19:32:45.413Z,101411.48
2019-05-23T19:35:20.391Z,101411.45
2019-05-23T19:37:53.964Z,101408.65
2019-05-23T19:40:27.801Z,101409.08
2019-05-23T19:43:01.721Z,101408.52
2019-05-23T19:45:36.101Z,101407.05
2019-05-23T19:48:10.459Z,101406.02
2019-05-23T19:50:44.473Z,101400.94
2019-05-23T19:53:18.065Z,101406.22
2019-05-23T19:55:52.274Z,101397.38
2019-05-23T19:58:26.208Z,101394.84
2019-05-23T20:01:00.262Z,101396.80
2019-05-23T20:06:06.375Z,101385.11
2019-05-23T20:08:40.384Z,101397.62
2019-05-23T20:11:13.920Z,101393.72
2019-05-23T20:13:47.611Z,101395.23
2019-05-23T20:16:21.224Z,101397.63
2019-05-23T20:18:55.039Z,101396.90
2019-05-23T20:21:28.588Z,101389.77
2019-05-23T20:24:02.147Z,101395.28
2019-05-23T20:26:35.842Z,101394.30
2019-05-23T20:29:09.439Z,101396.02
2019-05-23T20:31:42.897Z,101395.91
2019-05-23T20:34:16.451Z,101389.53
2019-05-23T20:36:50.000Z,101392.13
2019-05-23T20:39:23.668Z,101389.47
2019-05-23T20:42:10.368Z,101386.70
2019-05-23T20:44:32.581Z,101388.93
2019-05-23T20:47:06.862Z,101390.33
2019-05-23T20:49:40.440Z,101389.37
2019-05-23T20:52:14.355Z,101383.93
2019-05-23T20:54:47.862Z,101379.32
2019-05-23T20:57:21.503Z,101380.58
2019-05-23T20:59:55.267Z,101385.36
2019-05-23T21:02:30.356Z,101379.28
2019-05-23T21:05:05.272Z,101375.48
2019-05-23T21:07:38.749Z,101379.20
2019-05-23T21:10:15.281Z,101377.69
2019-05-23T21:12:48.840Z,101374.69
2019-05-23T21:15:22.384Z,101385.67
2019-05-23T21:17:55.862Z,101374.58
2019-05-23T21:20:29.555Z,101374.84
2019-05-23T21:23:03.261Z,101377.73
2019-05-23T21:25:38.639Z,101377.94
2019-05-23T21:28:12.226Z,101369.55
2019-05-23T21:30:45.729Z,101381.89
2019-05-23T21:33:19.260Z,101375.30
2019-05-23T21:35:52.928Z,101374.56
2019-05-23T21:38:27.208Z,101374.30
2019-05-23T21:41:03.344Z,101372.68
2019-05-23T21:43:36.120Z,101378.67
2019-05-23T21:46:09.794Z,101370.70
2019-05-23T21:48:43.326Z,101370.34
2019-05-23T21:51:16.907Z,101368.72
2019-05-23T21:53:50.455Z,101368.87
2019-05-23T21:56:23.944Z,101369.39
2019-05-23T21:58:57.498Z,101366.33
2019-05-23T22:01:32.975Z,101366.06
2019-05-23T22:04:20.294Z,101366.53
2019-05-23T22:06:56.068Z,101359.91
2019-05-23T22:09:29.598Z,101362.81
2019-05-23T22:12:03.786Z,101362.13
2019-05-23T22:14:37.800Z,101360.44
2019-05-23T22:17:11.605Z,101365.58
2019-05-23T22:19:45.303Z,101359.89
2019-05-23T22:22:19.113Z,101353.38
2019-05-23T22:24:52.870Z,101355.34
2019-05-23T22:27:26.706Z,101352.27
2019-05-23T22:30:00.440Z,101349.20
2019-05-23T22:32:35.142Z,101356.47
2019-05-23T22:35:10.486Z,101347.11
2019-05-23T22:37:43.993Z,101343.58
2019-05-23T22:40:17.785Z,101341.42
2019-05-23T22:42:51.341Z,101345.13
2019-05-23T22:45:26.569Z,101337.56
2019-05-23T22:48:00.141Z,101333.20
2019-05-23T22:50:33.685Z,101332.86
2019-05-23T22:53:07.317Z,101330.69
2019-05-23T22:55:40.965Z,101322.30
2019-05-23T22:58:14.639Z,101329.71
2019-05-23T23:00:49.158Z,101326.27
2019-05-23T23:03:22.780Z,101325.95
2019-05-23T23:05:56.315Z,101324.78
2019-05-23T23:08:30.490Z,101323.48
2019-05-23T23:11:04.095Z,101324.04
2019-05-23T23:13:39.224Z,101318.35
2019-05-23T23:16:13.336Z,101319.34
2019-05-23T23:18:47.427Z,101313.05
2019-05-23T23:21:20.976Z,101318.27
2019-05-23T23:23:54.445Z,101317.61
2019-05-23T23:26:27.979Z,101314.75
2019-05-23T23:29:01.630Z,101326.64
2019-05-23T23:31:35.301Z,101321.60
2019-05-23T23:34:08.869Z,101312.09
2019-05-23T23:36:42.431Z,101312.14
2019-05-23T23:39:16.329Z,101321.08
2019-05-23T23:41:49.957Z,101316.52
2019-05-23T23:44:25.216Z,101319.73
2019-05-23T23:47:16.564Z,101315.26
2019-05-23T23:50:08.013Z,101312.33
2019-05-23T23:52:59.336Z,101314.39
2019-05-23T23:55:50.740Z,101314.77
2019-05-23T23:58:23.543Z,101307.46
